sensor_id;sensor_type;location;lat;lon;timestamp;P1;durP1;ratioP1;P2;durP2;ratioP2
85829;SDS011;76277;49.212;16.680;2024-03-25T00:00:20;17.00;;;15.10;;
85829;SDS011;76277;49.212;16.680;2024-03-25T00:03:05;17.00;;;15.10;;
85829;SDS011;76277;49.212;16.680;2024-03-25T00:05:50;15.60;;;13.80;;
85829;SDS011;76277;49.212;16.680;2024-03-25T00:08:35;15.60;;;13.80;;
85829;SDS011;76277;49.212;16.680;2024-03-25T00:11:19;15.60;;;13.80;;
85829;SDS011;76277;49.212;16.680;2024-03-25T00:14:04;15.60;;;13.80;;
85829;SDS011;76277;49.212;16.680;2024-03-25T00:16:49;15.60;;;13.80;;
85829;SDS011;76277;49.212;16.680;2024-03-25T00:19:34;15.60;;;13.80;;
85829;SDS011;76277;49.212;16.680;2024-03-25T00:22:18;15.30;;;13.60;;
85829;SDS011;76277;49.212;16.680;2024-03-25T00:25:03;15.30;;;13.60;;
85829;SDS011;76277;49.212;16.680;2024-03-25T00:27:47;15.30;;;13.60;;
85829;SDS011;76277;49.212;16.680;2024-03-25T00:30:32;15.30;;;13.60;;
85829;SDS011;76277;49.212;16.680;2024-03-25T00:33:17;15.30;;;13.60;;
85829;SDS011;76277;49.212;16.680;2024-03-25T00:38:46;11.70;;;10.40;;
85829;SDS011;76277;49.212;16.680;2024-03-25T00:41:30;11.70;;;10.40;;
85829;SDS011;76277;49.212;16.680;2024-03-25T00:44:15;11.70;;;10.40;;
85829;SDS011;76277;49.212;16.680;2024-03-25T00:47:00;11.70;;;10.40;;
85829;SDS011;76277;49.212;16.680;2024-03-25T00:49:44;11.70;;;10.40;;
85829;SDS011;76277;49.212;16.680;2024-03-25T00:52:29;15.90;;;14.20;;
85829;SDS011;76277;49.212;16.680;2024-03-25T00:55:14;15.90;;;14.20;;
85829;SDS011;76277;49.212;16.680;2024-03-25T00:57:59;15.90;;;14.20;;
85829;SDS011;76277;49.212;16.680;2024-03-25T01:00:45;15.90;;;14.20;;
85829;SDS011;76277;49.212;16.680;2024-03-25T01:03:28;15.90;;;14.20;;
85829;SDS011;76277;49.212;16.680;2024-03-25T01:06:12;13.90;;;12.40;;
85829;SDS011;76277;49.212;16.680;2024-03-25T01:08:57;13.90;;;12.40;;
85829;SDS011;76277;49.212;16.680;2024-03-25T01:11:42;13.90;;;12.40;;
85829;SDS011;76277;49.212;16.680;2024-03-25T01:14:26;13.90;;;12.40;;
85829;SDS011;76277;49.212;16.680;2024-03-25T01:17:11;13.90;;;12.40;;
85829;SDS011;76277;49.212;16.680;2024-03-25T01:19:56;13.90;;;12.40;;
85829;SDS011;76277;49.212;16.680;2024-03-25T01:22:41;13.80;;;12.30;;
85829;SDS011;76277;49.212;16.680;2024-03-25T01:25:25;13.80;;;12.30;;
85829;SDS011;76277;49.212;16.680;2024-03-25T01:28:10;13.80;;;12.30;;
85829;SDS011;76277;49.212;16.680;2024-03-25T01:30:54;13.80;;;12.30;;
85829;SDS011;76277;49.212;16.680;2024-03-25T01:33:39;13.80;;;12.30;;
85829;SDS011;76277;49.212;16.680;2024-03-25T01:36:24;14.10;;;12.50;;
85829;SDS011;76277;49.212;16.680;2024-03-25T01:39:08;14.10;;;12.50;;
85829;SDS011;76277;49.212;16.680;2024-03-25T01:41:53;14.10;;;12.50;;
85829;SDS011;76277;49.212;16.680;2024-03-25T01:44:38;14.10;;;12.50;;
85829;SDS011;76277;49.212;16.680;2024-03-25T01:47:22;14.10;;;12.50;;
85829;SDS011;76277;49.212;16.680;2024-03-25T01:50:07;14.10;;;12.50;;
85829;SDS011;76277;49.212;16.680;2024-03-25T01:52:52;14.60;;;13.00;;
85829;SDS011;76277;49.212;16.680;2024-03-25T01:55:37;14.60;;;13.00;;
85829;SDS011;76277;49.212;16.680;2024-03-25T01:58:21;14.60;;;13.00;;
85829;SDS011;76277;49.212;16.680;2024-03-25T02:01:06;14.60;;;13.00;;
85829;SDS011;76277;49.212;16.680;2024-03-25T02:03:52;14.60;;;13.00;;
85829;SDS011;76277;49.212;16.680;2024-03-25T02:06:36;12.30;;;10.90;;
85829;SDS011;76277;49.212;16.680;2024-03-25T02:09:20;12.30;;;10.90;;
85829;SDS011;76277;49.212;16.680;2024-03-25T02:12:05;12.30;;;10.90;;
85829;SDS011;76277;49.212;16.680;2024-03-25T02:14:49;12.30;;;10.90;;
85829;SDS011;76277;49.212;16.680;2024-03-25T02:17:34;12.30;;;10.90;;
85829;SDS011;76277;49.212;16.680;2024-03-25T02:20:18;12.30;;;10.90;;
85829;SDS011;76277;49.212;16.680;2024-03-25T02:23:03;14.00;;;12.40;;
85829;SDS011;76277;49.212;16.680;2024-03-25T02:25:49;14.00;;;12.40;;
85829;SDS011;76277;49.212;16.680;2024-03-25T02:28:32;14.00;;;12.40;;
85829;SDS011;76277;49.212;16.680;2024-03-25T02:31:17;14.00;;;12.40;;
85829;SDS011;76277;49.212;16.680;2024-03-25T02:34:02;14.00;;;12.40;;
85829;SDS011;76277;49.212;16.680;2024-03-25T02:36:46;12.70;;;11.30;;
85829;SDS011;76277;49.212;16.680;2024-03-25T02:39:32;12.70;;;11.30;;
85829;SDS011;76277;49.212;16.680;2024-03-25T02:42:16;12.70;;;11.30;;
85829;SDS011;76277;49.212;16.680;2024-03-25T02:45:01;12.70;;;11.30;;
85829;SDS011;76277;49.212;16.680;2024-03-25T02:47:46;12.70;;;11.30;;
85829;SDS011;76277;49.212;16.680;2024-03-25T02:50:29;12.70;;;11.30;;
85829;SDS011;76277;49.212;16.680;2024-03-25T02:53:14;12.20;;;10.90;;
85829;SDS011;76277;49.212;16.680;2024-03-25T02:55:59;12.20;;;10.90;;
85829;SDS011;76277;49.212;16.680;2024-03-25T02:58:43;12.20;;;10.90;;
85829;SDS011;76277;49.212;16.680;2024-03-25T03:01:28;12.20;;;10.90;;
85829;SDS011;76277;49.212;16.680;2024-03-25T03:04:13;12.20;;;10.90;;
85829;SDS011;76277;49.212;16.680;2024-03-25T03:06:58;18.30;;;11.20;;
85829;SDS011;76277;49.212;16.680;2024-03-25T03:09:42;18.30;;;11.20;;
85829;SDS011;76277;49.212;16.680;2024-03-25T03:12:27;18.30;;;11.20;;
85829;SDS011;76277;49.212;16.680;2024-03-25T03:15:11;18.30;;;11.20;;
85829;SDS011;76277;49.212;16.680;2024-03-25T03:17:56;18.30;;;11.20;;
85829;SDS011;76277;49.212;16.680;2024-03-25T03:20:41;18.30;;;11.20;;
85829;SDS011;76277;49.212;16.680;2024-03-25T03:23:26;12.50;;;11.10;;
85829;SDS011;76277;49.212;16.680;2024-03-25T03:26:10;12.50;;;11.10;;
85829;SDS011;76277;49.212;16.680;2024-03-25T03:28:55;12.50;;;11.10;;
85829;SDS011;76277;49.212;16.680;2024-03-25T03:31:40;12.50;;;11.10;;
85829;SDS011;76277;49.212;16.680;2024-03-25T03:34:24;12.50;;;11.10;;
85829;SDS011;76277;49.212;16.680;2024-03-25T03:37:09;8.90;;;7.90;;
85829;SDS011;76277;49.212;16.680;2024-03-25T03:39:53;8.90;;;7.90;;
85829;SDS011;76277;49.212;16.680;2024-03-25T03:48:08;8.90;;;7.90;;
85829;SDS011;76277;49.212;16.680;2024-03-25T03:50:52;8.90;;;7.90;;
85829;SDS011;76277;49.212;16.680;2024-03-25T03:53:37;10.20;;;9.00;;
85829;SDS011;76277;49.212;16.680;2024-03-25T03:56:21;10.20;;;9.00;;
85829;SDS011;76277;49.212;16.680;2024-03-25T04:01:51;10.20;;;9.00;;
85829;SDS011;76277;49.212;16.680;2024-03-25T04:04:36;10.20;;;9.00;;
85829;SDS011;76277;49.212;16.680;2024-03-25T04:07:20;12.40;;;11.00;;
85829;SDS011;76277;49.212;16.680;2024-03-25T04:10:05;12.40;;;11.00;;
85829;SDS011;76277;49.212;16.680;2024-03-25T04:12:49;12.40;;;11.00;;
85829;SDS011;76277;49.212;16.680;2024-03-25T04:15:34;12.40;;;11.00;;
85829;SDS011;76277;49.212;16.680;2024-03-25T04:18:19;12.40;;;11.00;;
85829;SDS011;76277;49.212;16.680;2024-03-25T04:21:04;12.40;;;11.00;;
85829;SDS011;76277;49.212;16.680;2024-03-25T04:23:48;12.20;;;10.90;;
85829;SDS011;76277;49.212;16.680;2024-03-25T04:26:33;12.20;;;10.90;;
85829;SDS011;76277;49.212;16.680;2024-03-25T04:29:18;12.20;;;10.90;;
85829;SDS011;76277;49.212;16.680;2024-03-25T04:32:02;12.20;;;10.90;;
85829;SDS011;76277;49.212;16.680;2024-03-25T04:34:47;12.20;;;10.90;;
85829;SDS011;76277;49.212;16.680;2024-03-25T04:37:32;7.00;;;6.20;;
85829;SDS011;76277;49.212;16.680;2024-03-25T04:40:16;7.00;;;6.20;;
85829;SDS011;76277;49.212;16.680;2024-03-25T04:43:01;7.00;;;6.20;;
85829;SDS011;76277;49.212;16.680;2024-03-25T04:45:46;7.00;;;6.20;;
85829;SDS011;76277;49.212;16.680;2024-03-25T04:48:30;7.00;;;6.20;;
85829;SDS011;76277;49.212;16.680;2024-03-25T04:51:15;7.00;;;6.20;;
85829;SDS011;76277;49.212;16.680;2024-03-25T04:53:59;11.30;;;10.00;;
85829;SDS011;76277;49.212;16.680;2024-03-25T04:56:44;11.30;;;10.00;;
85829;SDS011;76277;49.212;16.680;2024-03-25T04:59:29;11.30;;;10.00;;
85829;SDS011;76277;49.212;16.680;2024-03-25T05:02:13;11.30;;;10.00;;
85829;SDS011;76277;49.212;16.680;2024-03-25T05:04:58;11.30;;;10.00;;
85829;SDS011;76277;49.212;16.680;2024-03-25T05:07:43;10.90;;;9.70;;
85829;SDS011;76277;49.212;16.680;2024-03-25T05:10:27;10.90;;;9.70;;
85829;SDS011;76277;49.212;16.680;2024-03-25T05:13:12;10.90;;;9.70;;
85829;SDS011;76277;49.212;16.680;2024-03-25T05:15:57;10.90;;;9.70;;
85829;SDS011;76277;49.212;16.680;2024-03-25T05:18:41;10.90;;;9.70;;
85829;SDS011;76277;49.212;16.680;2024-03-25T05:21:26;10.90;;;9.70;;
85829;SDS011;76277;49.212;16.680;2024-03-25T05:24:11;10.90;;;9.70;;
85829;SDS011;76277;49.212;16.680;2024-03-25T05:26:56;10.90;;;9.70;;
85829;SDS011;76277;49.212;16.680;2024-03-25T05:29:40;10.90;;;9.70;;
85829;SDS011;76277;49.212;16.680;2024-03-25T05:32:25;10.90;;;9.70;;
85829;SDS011;76277;49.212;16.680;2024-03-25T05:37:54;9.80;;;8.70;;
85829;SDS011;76277;49.212;16.680;2024-03-25T05:40:39;9.80;;;8.70;;
85829;SDS011;76277;49.212;16.680;2024-03-25T05:43:23;9.80;;;8.70;;
85829;SDS011;76277;49.212;16.680;2024-03-25T05:46:08;9.80;;;8.70;;
85829;SDS011;76277;49.212;16.680;2024-03-25T05:48:53;9.80;;;8.70;;
85829;SDS011;76277;49.212;16.680;2024-03-25T05:51:38;9.80;;;8.70;;
85829;SDS011;76277;49.212;16.680;2024-03-25T05:54:22;10.00;;;8.90;;
85829;SDS011;76277;49.212;16.680;2024-03-25T05:57:07;10.00;;;8.90;;
85829;SDS011;76277;49.212;16.680;2024-03-25T05:59:51;10.00;;;8.90;;
85829;SDS011;76277;49.212;16.680;2024-03-25T06:02:36;10.00;;;8.90;;
85829;SDS011;76277;49.212;16.680;2024-03-25T06:05:21;10.00;;;8.90;;
85829;SDS011;76277;49.212;16.680;2024-03-25T06:08:06;15.10;;;13.40;;
85829;SDS011;76277;49.212;16.680;2024-03-25T06:10:50;15.10;;;13.40;;
85829;SDS011;76277;49.212;16.680;2024-03-25T06:13:35;15.10;;;13.40;;
85829;SDS011;76277;49.212;16.680;2024-03-25T06:16:19;15.10;;;13.40;;
85829;SDS011;76277;49.212;16.680;2024-03-25T06:19:04;15.10;;;13.40;;
85829;SDS011;76277;49.212;16.680;2024-03-25T06:21:49;15.10;;;13.40;;
85829;SDS011;76277;49.212;16.680;2024-03-25T06:24:34;9.20;;;8.20;;
85829;SDS011;76277;49.212;16.680;2024-03-25T06:27:18;9.20;;;8.20;;
85829;SDS011;76277;49.212;16.680;2024-03-25T06:30:03;9.20;;;8.20;;
85829;SDS011;76277;49.212;16.680;2024-03-25T06:32:47;9.20;;;8.20;;
85829;SDS011;76277;49.212;16.680;2024-03-25T06:35:32;9.20;;;8.20;;
85829;SDS011;76277;49.212;16.680;2024-03-25T06:38:17;12.00;;;10.70;;
85829;SDS011;76277;49.212;16.680;2024-03-25T06:41:01;12.00;;;10.70;;
85829;SDS011;76277;49.212;16.680;2024-03-25T06:43:46;12.00;;;10.70;;
85829;SDS011;76277;49.212;16.680;2024-03-25T06:46:31;12.00;;;10.70;;
85829;SDS011;76277;49.212;16.680;2024-03-25T06:49:16;12.00;;;10.70;;
85829;SDS011;76277;49.212;16.680;2024-03-25T06:52:00;12.00;;;10.70;;
85829;SDS011;76277;49.212;16.680;2024-03-25T06:54:45;11.00;;;9.80;;
85829;SDS011;76277;49.212;16.680;2024-03-25T06:57:29;11.00;;;9.80;;
85829;SDS011;76277;49.212;16.680;2024-03-25T07:00:14;11.00;;;9.80;;
85829;SDS011;76277;49.212;16.680;2024-03-25T07:02:59;11.00;;;9.80;;
85829;SDS011;76277;49.212;16.680;2024-03-25T07:05:44;11.00;;;9.80;;
85829;SDS011;76277;49.212;16.680;2024-03-25T07:08:28;7.90;;;7.00;;
85829;SDS011;76277;49.212;16.680;2024-03-25T07:11:13;7.90;;;7.00;;
85829;SDS011;76277;49.212;16.680;2024-03-25T07:13:57;7.90;;;7.00;;
85829;SDS011;76277;49.212;16.680;2024-03-25T07:16:42;7.90;;;7.00;;
85829;SDS011;76277;49.212;16.680;2024-03-25T07:19:27;7.90;;;7.00;;
85829;SDS011;76277;49.212;16.680;2024-03-25T07:22:12;7.90;;;7.00;;
85829;SDS011;76277;49.212;16.680;2024-03-25T07:24:56;5.90;;;5.20;;
85829;SDS011;76277;49.212;16.680;2024-03-25T07:27:41;5.90;;;5.20;;
85829;SDS011;76277;49.212;16.680;2024-03-25T07:30:25;5.90;;;5.20;;
85829;SDS011;76277;49.212;16.680;2024-03-25T07:33:10;5.90;;;5.20;;
85829;SDS011;76277;49.212;16.680;2024-03-25T07:35:55;5.90;;;5.20;;
85829;SDS011;76277;49.212;16.680;2024-03-25T07:38:39;3.90;;;3.50;;
85829;SDS011;76277;49.212;16.680;2024-03-25T07:41:24;3.90;;;3.50;;
85829;SDS011;76277;49.212;16.680;2024-03-25T07:44:09;3.90;;;3.50;;
85829;SDS011;76277;49.212;16.680;2024-03-25T07:46:53;3.90;;;3.50;;
85829;SDS011;76277;49.212;16.680;2024-03-25T07:49:38;3.90;;;3.50;;
85829;SDS011;76277;49.212;16.680;2024-03-25T07:52:23;3.90;;;3.50;;
85829;SDS011;76277;49.212;16.680;2024-03-25T07:57:52;4.90;;;4.40;;
85829;SDS011;76277;49.212;16.680;2024-03-25T08:00:37;4.90;;;4.40;;
85829;SDS011;76277;49.212;16.680;2024-03-25T08:03:22;4.90;;;4.40;;
85829;SDS011;76277;49.212;16.680;2024-03-25T08:06:06;4.90;;;4.40;;
85829;SDS011;76277;49.212;16.680;2024-03-25T08:08:51;4.70;;;4.10;;
85829;SDS011;76277;49.212;16.680;2024-03-25T08:11:35;4.70;;;4.10;;
85829;SDS011;76277;49.212;16.680;2024-03-25T08:14:22;4.70;;;4.10;;
85829;SDS011;76277;49.212;16.680;2024-03-25T08:17:05;4.70;;;4.10;;
85829;SDS011;76277;49.212;16.680;2024-03-25T08:19:50;4.70;;;4.10;;
85829;SDS011;76277;49.212;16.680;2024-03-25T08:22:34;4.70;;;4.10;;
85829;SDS011;76277;49.212;16.680;2024-03-25T08:25:19;4.40;;;3.90;;
85829;SDS011;76277;49.212;16.680;2024-03-25T08:28:03;4.40;;;3.90;;
85829;SDS011;76277;49.212;16.680;2024-03-25T08:30:48;4.40;;;3.90;;
85829;SDS011;76277;49.212;16.680;2024-03-25T08:33:33;4.40;;;3.90;;
85829;SDS011;76277;49.212;16.680;2024-03-25T08:36:18;4.40;;;3.90;;
85829;SDS011;76277;49.212;16.680;2024-03-25T08:39:02;3.00;;;2.60;;
85829;SDS011;76277;49.212;16.680;2024-03-25T08:41:46;3.00;;;2.60;;
85829;SDS011;76277;49.212;16.680;2024-03-25T08:44:31;3.00;;;2.60;;
85829;SDS011;76277;49.212;16.680;2024-03-25T08:47:16;3.00;;;2.60;;
85829;SDS011;76277;49.212;16.680;2024-03-25T08:50:01;3.00;;;2.60;;
85829;SDS011;76277;49.212;16.680;2024-03-25T08:52:46;3.00;;;2.60;;
85829;SDS011;76277;49.212;16.680;2024-03-25T08:55:30;4.90;;;4.30;;
85829;SDS011;76277;49.212;16.680;2024-03-25T08:58:15;4.90;;;4.30;;
85829;SDS011;76277;49.212;16.680;2024-03-25T09:00:59;4.90;;;4.30;;
85829;SDS011;76277;49.212;16.680;2024-03-25T09:03:44;4.90;;;4.30;;
85829;SDS011;76277;49.212;16.680;2024-03-25T09:06:29;4.90;;;4.30;;
85829;SDS011;76277;49.212;16.680;2024-03-25T09:09:13;4.80;;;4.30;;
85829;SDS011;76277;49.212;16.680;2024-03-25T09:11:58;4.80;;;4.30;;
85829;SDS011;76277;49.212;16.680;2024-03-25T09:14:43;4.80;;;4.30;;
85829;SDS011;76277;49.212;16.680;2024-03-25T09:17:27;4.80;;;4.30;;
85829;SDS011;76277;49.212;16.680;2024-03-25T09:20:12;4.80;;;4.30;;
85829;SDS011;76277;49.212;16.680;2024-03-25T09:22:57;3.40;;;3.00;;
85829;SDS011;76277;49.212;16.680;2024-03-25T09:25:52;3.40;;;3.00;;
85829;SDS011;76277;49.212;16.680;2024-03-25T09:28:26;3.40;;;3.00;;
85829;SDS011;76277;49.212;16.680;2024-03-25T09:31:11;3.40;;;3.00;;
85829;SDS011;76277;49.212;16.680;2024-03-25T09:33:55;3.40;;;3.00;;
85829;SDS011;76277;49.212;16.680;2024-03-25T09:36:40;3.40;;;3.00;;
85829;SDS011;76277;49.212;16.680;2024-03-25T09:39:25;3.90;;;3.50;;
85829;SDS011;76277;49.212;16.680;2024-03-25T09:42:14;3.90;;;3.50;;
85829;SDS011;76277;49.212;16.680;2024-03-25T09:44:55;3.90;;;3.50;;
85829;SDS011;76277;49.212;16.680;2024-03-25T09:47:39;3.90;;;3.50;;
85829;SDS011;76277;49.212;16.680;2024-03-25T09:50:23;3.90;;;3.50;;
85829;SDS011;76277;49.212;16.680;2024-03-25T09:53:08;2.60;;;2.30;;
85829;SDS011;76277;49.212;16.680;2024-03-25T09:55:52;2.60;;;2.30;;
85829;SDS011;76277;49.212;16.680;2024-03-25T09:58:38;2.60;;;2.30;;
85829;SDS011;76277;49.212;16.680;2024-03-25T10:01:22;2.60;;;2.30;;
85829;SDS011;76277;49.212;16.680;2024-03-25T10:04:08;2.60;;;2.30;;
85829;SDS011;76277;49.212;16.680;2024-03-25T10:06:51;2.60;;;2.30;;
85829;SDS011;76277;49.212;16.680;2024-03-25T10:09:36;2.20;;;1.90;;
85829;SDS011;76277;49.212;16.680;2024-03-25T10:12:21;2.20;;;1.90;;
85829;SDS011;76277;49.212;16.680;2024-03-25T10:15:05;2.20;;;1.90;;
85829;SDS011;76277;49.212;16.680;2024-03-25T10:17:50;2.20;;;1.90;;
85829;SDS011;76277;49.212;16.680;2024-03-25T10:20:35;2.20;;;1.90;;
85829;SDS011;76277;49.212;16.680;2024-03-25T10:23:20;2.30;;;2.10;;
85829;SDS011;76277;49.212;16.680;2024-03-25T10:26:04;2.30;;;2.10;;
85829;SDS011;76277;49.212;16.680;2024-03-25T10:28:59;2.30;;;2.10;;
85829;SDS011;76277;49.212;16.680;2024-03-25T10:31:33;2.30;;;2.10;;
85829;SDS011;76277;49.212;16.680;2024-03-25T10:34:18;2.30;;;2.10;;
85829;SDS011;76277;49.212;16.680;2024-03-25T10:37:03;2.30;;;2.10;;
85829;SDS011;76277;49.212;16.680;2024-03-25T10:39:50;2.30;;;2.10;;
85829;SDS011;76277;49.212;16.680;2024-03-25T10:42:34;2.30;;;2.10;;
85829;SDS011;76277;49.212;16.680;2024-03-25T10:45:16;2.30;;;2.10;;
85829;SDS011;76277;49.212;16.680;2024-03-25T10:48:04;2.30;;;2.10;;
85829;SDS011;76277;49.212;16.680;2024-03-25T10:50:46;2.30;;;2.10;;
85829;SDS011;76277;49.212;16.680;2024-03-25T10:53:32;3.30;;;2.90;;
85829;SDS011;76277;49.212;16.680;2024-03-25T10:56:17;3.30;;;2.90;;
85829;SDS011;76277;49.212;16.680;2024-03-25T10:59:00;3.30;;;2.90;;
85829;SDS011;76277;49.212;16.680;2024-03-25T11:01:45;3.30;;;2.90;;
85829;SDS011;76277;49.212;16.680;2024-03-25T11:04:30;3.30;;;2.90;;
85829;SDS011;76277;49.212;16.680;2024-03-25T11:07:15;3.30;;;2.90;;
85829;SDS011;76277;49.212;16.680;2024-03-25T11:10:06;2.30;;;2.00;;
85829;SDS011;76277;49.212;16.680;2024-03-25T11:12:43;2.30;;;2.00;;
85829;SDS011;76277;49.212;16.680;2024-03-25T11:15:35;2.30;;;2.00;;
85829;SDS011;76277;49.212;16.680;2024-03-25T11:18:13;2.30;;;2.00;;
85829;SDS011;76277;49.212;16.680;2024-03-25T11:21:00;2.30;;;2.00;;
85829;SDS011;76277;49.212;16.680;2024-03-25T11:23:42;5.00;;;4.50;;
85829;SDS011;76277;49.212;16.680;2024-03-25T11:26:27;5.00;;;4.50;;
85829;SDS011;76277;49.212;16.680;2024-03-25T11:29:11;5.00;;;4.50;;
85829;SDS011;76277;49.212;16.680;2024-03-25T11:31:59;5.00;;;4.50;;
85829;SDS011;76277;49.212;16.680;2024-03-25T11:34:53;5.00;;;4.50;;
85829;SDS011;76277;49.212;16.680;2024-03-25T11:37:25;5.00;;;4.50;;
85829;SDS011;76277;49.212;16.680;2024-03-25T11:40:11;2.00;;;1.80;;
85829;SDS011;76277;49.212;16.680;2024-03-25T11:42:54;2.00;;;1.80;;
85829;SDS011;76277;49.212;16.680;2024-03-25T11:45:39;2.00;;;1.80;;
85829;SDS011;76277;49.212;16.680;2024-03-25T11:48:24;2.00;;;1.80;;
85829;SDS011;76277;49.212;16.680;2024-03-25T11:51:11;2.00;;;1.80;;
85829;SDS011;76277;49.212;16.680;2024-03-25T11:53:53;1.50;;;1.30;;
85829;SDS011;76277;49.212;16.680;2024-03-25T11:56:38;1.50;;;1.30;;
85829;SDS011;76277;49.212;16.680;2024-03-25T11:59:22;1.50;;;1.30;;
85829;SDS011;76277;49.212;16.680;2024-03-25T12:02:07;1.50;;;1.30;;
85829;SDS011;76277;49.212;16.680;2024-03-25T12:04:52;1.50;;;1.30;;
85829;SDS011;76277;49.212;16.680;2024-03-25T12:07:37;1.50;;;1.30;;
85829;SDS011;76277;49.212;16.680;2024-03-25T12:10:22;2.20;;;1.90;;
85829;SDS011;76277;49.212;16.680;2024-03-25T12:13:06;2.20;;;1.90;;
85829;SDS011;76277;49.212;16.680;2024-03-25T12:15:51;2.20;;;1.90;;
85829;SDS011;76277;49.212;16.680;2024-03-25T12:18:35;2.20;;;1.90;;
85829;SDS011;76277;49.212;16.680;2024-03-25T12:21:20;2.20;;;1.90;;
85829;SDS011;76277;49.212;16.680;2024-03-25T12:24:05;2.10;;;1.90;;
85829;SDS011;76277;49.212;16.680;2024-03-25T12:26:49;2.10;;;1.90;;
85829;SDS011;76277;49.212;16.680;2024-03-25T12:29:34;2.10;;;1.90;;
85829;SDS011;76277;49.212;16.680;2024-03-25T12:32:18;2.10;;;1.90;;
85829;SDS011;76277;49.212;16.680;2024-03-25T12:35:03;2.10;;;1.90;;
85829;SDS011;76277;49.212;16.680;2024-03-25T12:37:48;2.10;;;1.90;;
85829;SDS011;76277;49.212;16.680;2024-03-25T12:40:32;1.50;;;1.30;;
85829;SDS011;76277;49.212;16.680;2024-03-25T12:43:17;1.50;;;1.30;;
85829;SDS011;76277;49.212;16.680;2024-03-25T12:46:02;1.50;;;1.30;;
85829;SDS011;76277;49.212;16.680;2024-03-25T12:48:47;1.50;;;1.30;;
85829;SDS011;76277;49.212;16.680;2024-03-25T12:51:31;1.50;;;1.30;;
85829;SDS011;76277;49.212;16.680;2024-03-25T12:54:16;2.00;;;1.80;;
85829;SDS011;76277;49.212;16.680;2024-03-25T12:57:01;2.00;;;1.80;;
85829;SDS011;76277;49.212;16.680;2024-03-25T12:59:45;2.00;;;1.80;;
85829;SDS011;76277;49.212;16.680;2024-03-25T13:02:30;2.00;;;1.80;;
85829;SDS011;76277;49.212;16.680;2024-03-25T13:05:15;2.00;;;1.80;;
85829;SDS011;76277;49.212;16.680;2024-03-25T13:07:59;2.00;;;1.80;;
85829;SDS011;76277;49.212;16.680;2024-03-25T13:10:43;1.10;;;1.00;;
85829;SDS011;76277;49.212;16.680;2024-03-25T13:13:28;1.10;;;1.00;;
85829;SDS011;76277;49.212;16.680;2024-03-25T13:16:13;1.10;;;1.00;;
85829;SDS011;76277;49.212;16.680;2024-03-25T13:18:58;1.10;;;1.00;;
85829;SDS011;76277;49.212;16.680;2024-03-25T13:21:42;1.10;;;1.00;;
85829;SDS011;76277;49.212;16.680;2024-03-25T13:24:27;4.00;;;3.60;;
85829;SDS011;76277;49.212;16.680;2024-03-25T13:27:12;4.00;;;3.60;;
85829;SDS011;76277;49.212;16.680;2024-03-25T13:29:56;4.00;;;3.60;;
85829;SDS011;76277;49.212;16.680;2024-03-25T13:32:41;4.00;;;3.60;;
85829;SDS011;76277;49.212;16.680;2024-03-25T13:35:26;4.00;;;3.60;;
85829;SDS011;76277;49.212;16.680;2024-03-25T13:38:10;4.00;;;3.60;;
85829;SDS011;76277;49.212;16.680;2024-03-25T13:40:55;4.20;;;3.80;;
85829;SDS011;76277;49.212;16.680;2024-03-25T13:43:42;4.20;;;3.80;;
85829;SDS011;76277;49.212;16.680;2024-03-25T13:46:24;4.20;;;3.80;;
85829;SDS011;76277;49.212;16.680;2024-03-25T13:49:09;4.20;;;3.80;;
85829;SDS011;76277;49.212;16.680;2024-03-25T13:51:57;4.20;;;3.80;;
85829;SDS011;76277;49.212;16.680;2024-03-25T13:54:38;3.50;;;3.10;;
85829;SDS011;76277;49.212;16.680;2024-03-25T13:57:23;3.50;;;3.10;;
85829;SDS011;76277;49.212;16.680;2024-03-25T14:02:52;3.50;;;3.10;;
85829;SDS011;76277;49.212;16.680;2024-03-25T14:05:37;3.50;;;3.10;;
85829;SDS011;76277;49.212;16.680;2024-03-25T14:08:21;3.50;;;3.10;;
85829;SDS011;76277;49.212;16.680;2024-03-25T14:11:06;3.00;;;2.60;;
85829;SDS011;76277;49.212;16.680;2024-03-25T14:13:51;3.00;;;2.60;;
85829;SDS011;76277;49.212;16.680;2024-03-25T14:16:35;3.00;;;2.60;;
85829;SDS011;76277;49.212;16.680;2024-03-25T14:19:20;3.00;;;2.60;;
85829;SDS011;76277;49.212;16.680;2024-03-25T14:22:05;3.00;;;2.60;;
85829;SDS011;76277;49.212;16.680;2024-03-25T14:24:50;2.10;;;1.90;;
85829;SDS011;76277;49.212;16.680;2024-03-25T14:27:34;2.10;;;1.90;;
85829;SDS011;76277;49.212;16.680;2024-03-25T14:30:19;2.10;;;1.90;;
85829;SDS011;76277;49.212;16.680;2024-03-25T14:33:04;2.10;;;1.90;;
85829;SDS011;76277;49.212;16.680;2024-03-25T14:35:49;2.10;;;1.90;;
85829;SDS011;76277;49.212;16.680;2024-03-25T14:38:33;2.10;;;1.90;;
85829;SDS011;76277;49.212;16.680;2024-03-25T14:41:19;2.30;;;2.00;;
85829;SDS011;76277;49.212;16.680;2024-03-25T14:44:02;2.30;;;2.00;;
85829;SDS011;76277;49.212;16.680;2024-03-25T14:46:47;2.30;;;2.00;;
85829;SDS011;76277;49.212;16.680;2024-03-25T14:49:31;2.30;;;2.00;;
85829;SDS011;76277;49.212;16.680;2024-03-25T14:52:16;2.30;;;2.00;;
85829;SDS011;76277;49.212;16.680;2024-03-25T14:55:01;2.20;;;1.90;;
85829;SDS011;76277;49.212;16.680;2024-03-25T14:57:46;2.20;;;1.90;;
85829;SDS011;76277;49.212;16.680;2024-03-25T15:00:30;2.20;;;1.90;;
85829;SDS011;76277;49.212;16.680;2024-03-25T15:03:15;2.20;;;1.90;;
85829;SDS011;76277;49.212;16.680;2024-03-25T15:05:59;2.20;;;1.90;;
85829;SDS011;76277;49.212;16.680;2024-03-25T15:08:44;2.20;;;1.90;;
85829;SDS011;76277;49.212;16.680;2024-03-25T15:11:29;1.40;;;1.20;;
85829;SDS011;76277;49.212;16.680;2024-03-25T15:14:14;1.40;;;1.20;;
85829;SDS011;76277;49.212;16.680;2024-03-25T15:16:58;1.40;;;1.20;;
85829;SDS011;76277;49.212;16.680;2024-03-25T15:19:43;1.40;;;1.20;;
85829;SDS011;76277;49.212;16.680;2024-03-25T15:22:27;1.40;;;1.20;;
85829;SDS011;76277;49.212;16.680;2024-03-25T15:25:12;2.00;;;1.70;;
85829;SDS011;76277;49.212;16.680;2024-03-25T15:27:57;2.00;;;1.70;;
85829;SDS011;76277;49.212;16.680;2024-03-25T15:30:41;2.00;;;1.70;;
85829;SDS011;76277;49.212;16.680;2024-03-25T15:33:26;2.00;;;1.70;;
85829;SDS011;76277;49.212;16.680;2024-03-25T15:36:11;2.00;;;1.70;;
85829;SDS011;76277;49.212;16.680;2024-03-25T15:38:55;2.00;;;1.70;;
85829;SDS011;76277;49.212;16.680;2024-03-25T15:41:40;2.70;;;2.40;;
85829;SDS011;76277;49.212;16.680;2024-03-25T15:44:25;2.70;;;2.40;;
85829;SDS011;76277;49.212;16.680;2024-03-25T15:47:10;2.70;;;2.40;;
85829;SDS011;76277;49.212;16.680;2024-03-25T15:49:55;2.70;;;2.40;;
85829;SDS011;76277;49.212;16.680;2024-03-25T15:52:39;2.70;;;2.40;;
85829;SDS011;76277;49.212;16.680;2024-03-25T15:55:23;1.10;;;1.00;;
85829;SDS011;76277;49.212;16.680;2024-03-25T15:58:09;1.10;;;1.00;;
85829;SDS011;76277;49.212;16.680;2024-03-25T16:00:53;1.10;;;1.00;;
85829;SDS011;76277;49.212;16.680;2024-03-25T16:03:38;1.10;;;1.00;;
85829;SDS011;76277;49.212;16.680;2024-03-25T16:06:22;1.10;;;1.00;;
85829;SDS011;76277;49.212;16.680;2024-03-25T16:09:07;1.10;;;1.00;;
85829;SDS011;76277;49.212;16.680;2024-03-25T16:11:51;3.70;;;3.30;;
85829;SDS011;76277;49.212;16.680;2024-03-25T16:14:36;3.70;;;3.30;;
85829;SDS011;76277;49.212;16.680;2024-03-25T16:17:21;3.70;;;3.30;;
85829;SDS011;76277;49.212;16.680;2024-03-25T16:20:07;3.70;;;3.30;;
85829;SDS011;76277;49.212;16.680;2024-03-25T16:22:50;3.70;;;3.30;;
85829;SDS011;76277;49.212;16.680;2024-03-25T16:25:35;4.40;;;3.90;;